Terminal Aerodrome Forecast
Issued by NWS

Home | Current Version | Previous Version | Graphics & Text | Print | Product List | Glossary On
Versions: 1 2 3 4 5 6 7 8 9 10 11 12 13 14 15 16 17 18
659
FTUS43 KBIS 280521
TAFMOT
TAF
KMOT 280521Z 2806/2906 03006KT P6SM OVC008
     FM281200 03005KT P6SM OVC003
     FM281400 02005KT P6SM BKN008
     FM281700 04005KT P6SM BKN035
     FM290500 28004KT P6SM BKN060=

USA.gov is the U.S. government's official web portal to all federal, state and local government web resources and services.